Terminal Aerodrome Forecast
Issued by NWS Sioux Falls, SD

Home | Current Version | Previous Version | Graphics & Text | Print | Product List | Glossary Off
Versions: 1 2 3 4 5 6 7 8 9 10 11 12 13 14 15 16 17 18 19 20 21

000
FTUS43 KFSD 230242 AAC
TAFHON
TAF AMD
KHON 230242Z 2303/2324 35005KT 1/4SM FG OVC002
      TEMPO 2303/2305 3/4SM BR OVC004
     FM230500 34007KT 3SM -SN BR OVC005
      TEMPO 2305/2307 1SM -SN BR OVC003
     FM231000 35014KT 3SM -SN OVC007
     FM231500 35018G25KT 5SM -SN OVC009
     FM232000 34020G28KT P6SM OVC015=

USA.gov is the U.S. government's official web portal to all federal, state and local government web resources and services.